createdAt,value
2023-03-27T00:00:10.887Z,1.60
2023-03-27T00:02:41.736Z,1.33
2023-03-27T00:05:10.560Z,1.20
2023-03-27T00:07:41.507Z,1.23
2023-03-27T00:10:10.936Z,2.17
2023-03-27T00:12:40.241Z,1.00
2023-03-27T00:15:09.769Z,1.27
2023-03-27T00:17:38.134Z,1.40
2023-03-27T00:20:08.887Z,1.40
2023-03-27T00:22:37.142Z,1.47
2023-03-27T00:25:05.988Z,1.50
2023-03-27T00:27:34.281Z,1.17
2023-03-27T00:30:05.155Z,1.20
2023-03-27T00:32:34.195Z,1.40
2023-03-27T00:35:02.470Z,1.00
2023-03-27T00:37:32.461Z,1.03
2023-03-27T00:40:00.658Z,1.37
2023-03-27T00:42:29.755Z,1.13
2023-03-27T00:44:58.007Z,1.40
2023-03-27T00:47:33.021Z,1.20
2023-03-27T00:50:04.972Z,1.40
2023-03-27T00:52:37.172Z,1.20
2023-03-27T00:55:10.861Z,1.20
2023-03-27T00:57:39.995Z,1.13
2023-03-27T01:00:14.309Z,1.13
2023-03-27T01:02:44.430Z,0.93
2023-03-27T01:05:13.489Z,1.47
2023-03-27T01:08:00.519Z,1.07
2023-03-27T01:10:41.667Z,1.20
2023-03-27T01:13:22.487Z,0.93
2023-03-27T01:15:55.974Z,1.17
2023-03-27T01:18:37.302Z,0.93
2023-03-27T01:21:49.214Z,0.97
2023-03-27T01:24:52.099Z,1.03
2023-03-27T01:27:25.840Z,1.30
2023-03-27T01:30:03.970Z,1.00
2023-03-27T01:33:00.696Z,0.93
2023-03-27T01:36:05.108Z,1.00
2023-03-27T01:39:17.691Z,1.10
2023-03-27T01:41:54.962Z,1.43
2023-03-27T01:44:42.950Z,1.00
2023-03-27T01:47:19.752Z,1.07
2023-03-27T01:49:55.631Z,1.00
2023-03-27T01:52:30.448Z,1.00
2023-03-27T01:55:05.085Z,1.27
2023-03-27T01:57:49.722Z,1.10
2023-03-27T02:00:22.873Z,1.10
2023-03-27T02:02:55.968Z,1.30
2023-03-27T02:05:30.267Z,1.13
2023-03-27T02:08:04.761Z,1.30
2023-03-27T02:10:41.677Z,1.00
2023-03-27T02:13:19.841Z,0.90
2023-03-27T02:15:50.583Z,0.97
2023-03-27T02:18:27.512Z,1.27
2023-03-27T02:20:56.037Z,1.03
2023-03-27T02:23:24.369Z,1.27
2023-03-27T02:25:55.379Z,1.57
2023-03-27T02:28:57.267Z,1.20
2023-03-27T02:31:40.004Z,1.00
2023-03-27T02:34:49.295Z,1.27
2023-03-27T02:37:32.096Z,1.00
2023-03-27T02:40:40.023Z,1.70
2023-03-27T02:43:35.626Z,1.17
2023-03-27T02:46:15.963Z,1.87
2023-03-27T02:48:47.426Z,1.40
2023-03-27T02:51:20.686Z,1.50
2023-03-27T02:53:54.139Z,1.87
2023-03-27T02:56:26.201Z,1.50
2023-03-27T02:59:01.080Z,1.20
2023-03-27T03:01:35.122Z,0.97
2023-03-27T03:04:19.301Z,0.90
2023-03-27T03:07:07.163Z,1.03
2023-03-27T03:09:41.127Z,1.10
2023-03-27T03:12:10.770Z,1.10
2023-03-27T03:14:45.390Z,1.03
2023-03-27T03:17:14.711Z,1.20
2023-03-27T03:19:43.134Z,1.17
2023-03-27T03:22:11.841Z,1.27
2023-03-27T03:24:43.814Z,1.50
2023-03-27T03:27:16.015Z,1.30
2023-03-27T03:29:53.695Z,1.10
2023-03-27T03:32:27.496Z,1.57
2023-03-27T03:34:57.077Z,1.50
2023-03-27T03:37:28.651Z,0.87
2023-03-27T03:39:59.054Z,1.03
2023-03-27T03:42:27.296Z,1.10
2023-03-27T03:44:59.407Z,0.93
2023-03-27T03:47:27.643Z,0.83
2023-03-27T03:49:55.882Z,1.13
2023-03-27T03:52:24.219Z,0.80
2023-03-27T03:54:52.784Z,1.00
2023-03-27T03:57:21.797Z,0.80
2023-03-27T04:00:08.523Z,0.80
2023-03-27T04:02:53.575Z,0.90
2023-03-27T04:05:22.662Z,0.93
2023-03-27T04:07:55.832Z,1.50
2023-03-27T04:10:38.152Z,1.10
2023-03-27T04:13:10.986Z,0.77
2023-03-27T04:15:50.091Z,0.80
2023-03-27T04:18:19.822Z,1.43
2023-03-27T04:20:50.331Z,1.20
2023-03-27T04:23:20.934Z,1.20
2023-03-27T04:25:49.720Z,1.13
2023-03-27T04:28:25.814Z,1.13
2023-03-27T04:31:10.943Z,1.30
2023-03-27T04:34:05.089Z,1.90
2023-03-27T04:37:01.477Z,1.80
2023-03-27T04:39:31.287Z,1.30
2023-03-27T04:41:59.555Z,1.37
2023-03-27T04:44:29.077Z,1.20
2023-03-27T04:47:01.833Z,1.27
2023-03-27T04:49:30.756Z,0.90
2023-03-27T04:52:03.937Z,0.80
2023-03-27T04:54:32.928Z,1.07
2023-03-27T04:57:03.324Z,0.90
2023-03-27T04:59:32.341Z,1.07
2023-03-27T05:02:21.324Z,1.10
2023-03-27T05:04:58.593Z,0.93
2023-03-27T05:07:32.939Z,1.00
2023-03-27T05:10:03.729Z,1.10
2023-03-27T05:12:34.139Z,1.00
2023-03-27T05:15:06.323Z,1.30
2023-03-27T05:17:44.035Z,1.40
2023-03-27T05:20:14.689Z,1.03
2023-03-27T05:22:44.050Z,1.20
2023-03-27T05:25:24.626Z,1.00
2023-03-27T05:27:54.444Z,1.17
2023-03-27T05:30:25.072Z,1.53
2023-03-27T05:33:07.882Z,1.50
2023-03-27T05:35:37.843Z,1.50
2023-03-27T05:38:06.563Z,1.53
2023-03-27T05:40:37.330Z,1.40
2023-03-27T05:43:06.005Z,1.57
2023-03-27T05:45:35.056Z,1.63
2023-03-27T05:48:04.578Z,1.80
2023-03-27T05:50:39.290Z,1.80
2023-03-27T05:53:16.180Z,1.70
2023-03-27T05:56:05.022Z,1.83
2023-03-27T05:58:42.986Z,1.13
2023-03-27T06:01:11.892Z,1.60
2023-03-27T06:03:40.296Z,1.70
2023-03-27T06:06:18.018Z,1.53
2023-03-27T06:08:47.233Z,2.17
2023-03-27T06:11:16.322Z,2.10
2023-03-27T06:13:48.821Z,2.27
2023-03-27T06:16:21.629Z,1.70
2023-03-27T06:19:04.780Z,3.20
2023-03-27T06:21:34.738Z,3.87
2023-03-27T06:24:04.093Z,5.20
2023-03-27T06:26:32.890Z,4.20
2023-03-27T06:29:08.170Z,3.87
2023-03-27T06:31:41.160Z,4.10
2023-03-27T06:34:15.026Z,4.43
2023-03-27T06:37:05.092Z,3.53
2023-03-27T06:39:40.447Z,3.23
2023-03-27T06:42:09.765Z,3.30
2023-03-27T06:45:09.492Z,2.97
2023-03-27T06:48:12.992Z,2.57
2023-03-27T06:50:50.172Z,2.17
2023-03-27T06:55:52.321Z,2.33
2023-03-27T06:58:21.998Z,1.77
2023-03-27T07:00:51.215Z,2.33
2023-03-27T07:03:21.338Z,2.57
2023-03-27T07:06:02.595Z,1.90
2023-03-27T07:08:50.800Z,1.73
2023-03-27T07:11:19.836Z,2.43
2023-03-27T07:13:56.569Z,2.33
2023-03-27T07:16:29.528Z,2.40
2023-03-27T07:19:01.678Z,2.43
2023-03-27T07:21:32.132Z,2.70
2023-03-27T07:24:02.687Z,1.90
2023-03-27T07:26:36.731Z,2.30
2023-03-27T07:29:12.210Z,2.17
2023-03-27T07:31:55.815Z,1.80
2023-03-27T07:34:48.940Z,2.30
2023-03-27T07:37:23.773Z,1.97
2023-03-27T07:40:14.414Z,2.50
2023-03-27T07:42:50.031Z,1.90
2023-03-27T07:45:23.986Z,2.20
2023-03-27T07:48:05.231Z,1.93
2023-03-27T07:50:33.687Z,1.80
2023-03-27T07:53:02.531Z,1.53
2023-03-27T07:55:32.241Z,1.63
2023-03-27T07:58:07.255Z,1.40
2023-03-27T08:00:38.881Z,1.63
2023-03-27T08:03:14.473Z,2.00
2023-03-27T08:05:58.503Z,1.53
2023-03-27T08:08:29.441Z,1.40
2023-03-27T08:11:02.398Z,2.30
2023-03-27T08:13:35.826Z,1.60
2023-03-27T08:16:07.177Z,2.00
2023-03-27T08:18:36.499Z,1.30
2023-03-27T08:21:08.234Z,1.93
2023-03-27T08:23:37.989Z,2.03
2023-03-27T08:26:26.518Z,1.50
2023-03-27T08:28:59.717Z,1.57
2023-03-27T08:31:31.468Z,2.13
2023-03-27T08:34:02.446Z,1.73
2023-03-27T08:36:46.623Z,2.13
2023-03-27T08:39:16.288Z,2.37
2023-03-27T08:41:58.152Z,1.80
2023-03-27T08:44:37.471Z,1.57
2023-03-27T08:47:16.028Z,1.83
2023-03-27T08:49:57.634Z,2.67
2023-03-27T08:52:52.393Z,1.70
2023-03-27T08:55:34.645Z,1.50
2023-03-27T08:58:21.513Z,1.70
2023-03-27T09:01:02.188Z,1.47
2023-03-27T09:03:38.890Z,1.60
2023-03-27T09:06:12.535Z,1.70
2023-03-27T09:08:56.699Z,1.40
2023-03-27T09:11:37.300Z,1.50
2023-03-27T09:14:15.871Z,1.40
2023-03-27T09:16:49.448Z,1.53
2023-03-27T09:19:42.728Z,1.20
2023-03-27T09:22:19.761Z,1.40
2023-03-27T09:25:04.519Z,1.17
2023-03-27T09:27:35.087Z,1.33
2023-03-27T09:30:24.803Z,0.90
2023-03-27T09:33:03.466Z,1.27
2023-03-27T09:35:33.109Z,1.63
2023-03-27T09:38:07.052Z,1.00
2023-03-27T09:40:44.549Z,1.57
2023-03-27T09:43:18.284Z,1.33
2023-03-27T09:45:50.020Z,1.57
2023-03-27T09:48:29.311Z,0.97
2023-03-27T09:50:58.675Z,0.93
2023-03-27T09:53:33.706Z,1.57
2023-03-27T09:56:16.397Z,1.00
2023-03-27T09:58:57.283Z,1.30
2023-03-27T10:01:34.442Z,1.10
2023-03-27T10:04:16.312Z,1.00
2023-03-27T10:06:48.891Z,1.00
2023-03-27T10:09:28.287Z,1.07
2023-03-27T10:12:04.786Z,1.33
2023-03-27T10:14:36.109Z,1.20
2023-03-27T10:17:06.498Z,1.00
2023-03-27T10:19:38.750Z,1.07
2023-03-27T10:22:24.660Z,0.97
2023-03-27T10:24:54.711Z,1.10
2023-03-27T10:27:43.720Z,1.40
2023-03-27T10:30:41.668Z,1.03
2023-03-27T10:33:36.636Z,1.23
2023-03-27T10:36:28.365Z,1.03
2023-03-27T10:39:02.102Z,0.60
2023-03-27T10:41:42.331Z,1.10
2023-03-27T10:44:17.742Z,1.00
2023-03-27T10:46:53.706Z,1.30
2023-03-27T10:49:33.559Z,0.80
2023-03-27T10:52:15.828Z,1.10
2023-03-27T10:55:22.709Z,0.57
2023-03-27T10:57:56.139Z,0.90
2023-03-27T11:00:36.835Z,0.70
2023-03-27T11:03:14.907Z,0.50
2023-03-27T11:05:48.905Z,0.50
2023-03-27T11:08:33.032Z,0.60
2023-03-27T11:11:08.454Z,0.77
2023-03-27T11:13:44.818Z,0.60
2023-03-27T11:16:17.711Z,0.77
2023-03-27T11:19:33.157Z,0.80
2023-03-27T11:22:28.209Z,0.77
2023-03-27T11:25:03.942Z,1.30
2023-03-27T11:27:37.703Z,1.17
2023-03-27T11:30:24.731Z,1.27
2023-03-27T11:33:09.287Z,1.07
2023-03-27T11:35:40.498Z,0.90
2023-03-27T11:38:39.631Z,1.00
2023-03-27T11:41:14.632Z,0.87
2023-03-27T11:43:44.868Z,0.80
2023-03-27T11:46:45.951Z,0.90
2023-03-27T11:49:26.235Z,0.70
2023-03-27T11:52:06.996Z,1.30
2023-03-27T11:54:51.116Z,1.10
2023-03-27T11:57:28.299Z,0.87
2023-03-27T12:00:25.504Z,0.90
2023-03-27T12:03:28.082Z,1.00
2023-03-27T12:06:07.991Z,1.03
2023-03-27T12:08:55.571Z,1.00
2023-03-27T12:11:27.486Z,1.13
2023-03-27T12:14:40.225Z,1.50
2023-03-27T12:17:21.076Z,1.33
2023-03-27T12:20:26.844Z,1.17
2023-03-27T12:23:16.885Z,1.00
2023-03-27T12:26:18.811Z,1.17
2023-03-27T12:29:22.736Z,1.40
2023-03-27T12:32:16.885Z,1.20
2023-03-27T12:34:54.380Z,1.17
2023-03-27T12:37:31.946Z,1.60
2023-03-27T12:40:08.074Z,1.10
2023-03-27T12:42:44.691Z,1.33
2023-03-27T12:45:19.777Z,1.30
2023-03-27T12:48:18.059Z,1.70
2023-03-27T12:50:54.903Z,1.20
2023-03-27T12:53:49.201Z,1.40
2023-03-27T12:56:32.152Z,1.10
2023-03-27T12:59:01.286Z,1.60
2023-03-27T13:02:30.880Z,1.87
2023-03-27T13:05:27.377Z,1.33
2023-03-27T13:08:21.145Z,1.13
2023-03-27T13:11:10.467Z,1.30
2023-03-27T13:14:16.268Z,1.00
2023-03-27T13:17:07.073Z,1.53
2023-03-27T13:19:46.976Z,1.20
2023-03-27T13:22:36.544Z,1.07
2023-03-27T13:25:26.236Z,0.90
2023-03-27T13:28:22.727Z,1.30
2023-03-27T13:31:01.457Z,0.90
2023-03-27T13:34:13.592Z,1.07
2023-03-27T13:36:47.579Z,0.90
2023-03-27T13:39:24.860Z,0.73
2023-03-27T13:42:06.396Z,0.80
2023-03-27T13:44:51.835Z,1.10
2023-03-27T13:48:05.396Z,1.00
2023-03-27T13:51:06.835Z,1.07
2023-03-27T13:54:01.992Z,1.03
2023-03-27T13:57:00.124Z,1.20
2023-03-27T14:00:10.807Z,1.10
2023-03-27T14:03:12.032Z,0.80
2023-03-27T14:06:20.270Z,1.10
2023-03-27T14:08:59.950Z,1.10
2023-03-27T14:11:53.077Z,0.80
2023-03-27T14:15:10.505Z,1.00
2023-03-27T14:18:00.964Z,0.70
2023-03-27T14:20:31.349Z,0.73
2023-03-27T14:23:06.852Z,1.00
2023-03-27T14:26:01.859Z,1.10
2023-03-27T14:28:35.692Z,1.00
2023-03-27T14:31:08.647Z,1.10
2023-03-27T14:34:02.885Z,1.00
2023-03-27T14:36:35.968Z,1.00
2023-03-27T14:39:17.034Z,1.00
2023-03-27T14:41:55.735Z,0.90
2023-03-27T14:44:25.980Z,1.23
2023-03-27T14:47:04.059Z,1.00
2023-03-27T14:49:40.222Z,0.80
2023-03-27T14:52:18.015Z,0.83
2023-03-27T14:55:18.715Z,0.80
2023-03-27T14:57:54.456Z,0.90
2023-03-27T15:00:35.101Z,1.07
2023-03-27T15:03:11.447Z,1.33
2023-03-27T15:05:58.455Z,1.03
2023-03-27T15:08:37.066Z,1.10
2023-03-27T15:11:22.945Z,1.00
2023-03-27T15:14:01.506Z,0.80
2023-03-27T15:16:36.035Z,1.63
2023-03-27T15:19:12.506Z,1.07
2023-03-27T15:21:51.021Z,1.00
2023-03-27T15:24:24.317Z,1.93
2023-03-27T15:26:54.124Z,1.07
2023-03-27T15:29:32.298Z,1.10
2023-03-27T15:32:08.812Z,1.13
2023-03-27T15:34:47.251Z,1.00
2023-03-27T15:37:19.851Z,0.90
2023-03-27T15:40:07.313Z,1.20
2023-03-27T15:42:47.511Z,1.23
2023-03-27T15:45:17.857Z,0.90
2023-03-27T15:48:01.196Z,1.10
2023-03-27T15:50:31.369Z,0.80
2023-03-27T15:53:01.518Z,1.10
2023-03-27T15:55:36.759Z,1.00
2023-03-27T15:58:20.687Z,1.00
2023-03-27T16:00:52.022Z,1.03
2023-03-27T16:03:23.504Z,1.10
2023-03-27T16:05:56.595Z,0.90
2023-03-27T16:08:30.282Z,1.00
2023-03-27T16:11:00.614Z,0.80
2023-03-27T16:13:34.816Z,1.40
2023-03-27T16:16:05.930Z,1.03
2023-03-27T16:18:36.683Z,1.10
2023-03-27T16:21:13.346Z,1.10
2023-03-27T16:23:42.047Z,1.10
2023-03-27T16:26:16.324Z,0.90
2023-03-27T16:28:44.845Z,0.90
2023-03-27T16:31:15.902Z,1.10
2023-03-27T16:33:45.645Z,1.23
2023-03-27T16:36:17.393Z,1.20
2023-03-27T16:38:46.004Z,1.20
2023-03-27T16:41:15.400Z,1.60
2023-03-27T16:43:44.725Z,1.40
2023-03-27T16:46:18.250Z,1.10
2023-03-27T16:48:46.556Z,1.10
2023-03-27T16:51:16.471Z,0.80
2023-03-27T16:53:44.753Z,1.13
2023-03-27T16:56:13.033Z,1.10
2023-03-27T16:58:41.534Z,1.00
2023-03-27T17:01:10.358Z,1.07
2023-03-27T17:03:38.686Z,1.10
2023-03-27T17:06:09.129Z,1.63
2023-03-27T17:08:39.400Z,1.27
2023-03-27T17:11:10.429Z,1.40
2023-03-27T17:13:41.693Z,1.60
2023-03-27T17:16:11.639Z,1.87
2023-03-27T17:18:39.940Z,1.40
2023-03-27T17:21:08.596Z,1.27
2023-03-27T17:23:38.207Z,1.63
2023-03-27T17:26:07.945Z,1.80
2023-03-27T17:28:37.481Z,1.00
2023-03-27T17:31:06.151Z,1.47
2023-03-27T17:33:35.028Z,1.70
2023-03-27T17:36:08.875Z,1.73
2023-03-27T17:38:39.796Z,1.60
2023-03-27T17:41:08.454Z,1.10
2023-03-27T17:43:37.224Z,1.37
2023-03-27T17:46:05.861Z,1.83
2023-03-27T17:48:34.289Z,2.43
2023-03-27T17:51:08.985Z,1.97
2023-03-27T17:53:40.670Z,2.10
2023-03-27T17:56:09.910Z,2.27
2023-03-27T17:58:38.303Z,2.13
2023-03-27T18:01:16.570Z,1.60
2023-03-27T18:03:45.332Z,2.10
2023-03-27T18:06:14.138Z,2.20
2023-03-27T18:08:44.096Z,1.80
2023-03-27T18:11:14.502Z,2.70
2023-03-27T18:13:43.218Z,2.40
2023-03-27T18:16:12.136Z,2.20
2023-03-27T18:18:40.835Z,1.70
2023-03-27T18:21:09.977Z,1.30
2023-03-27T18:23:45.558Z,1.70
2023-03-27T18:26:16.849Z,1.97
2023-03-27T18:28:45.388Z,2.20
2023-03-27T18:31:14.015Z,2.27
2023-03-27T18:33:42.295Z,1.97
2023-03-27T18:36:11.990Z,2.77
2023-03-27T18:38:41.826Z,2.00
2023-03-27T18:41:10.878Z,2.33
2023-03-27T18:43:40.716Z,2.23
2023-03-27T18:46:10.787Z,2.20
2023-03-27T18:48:39.106Z,2.67
2023-03-27T18:51:07.681Z,1.90
2023-03-27T18:53:36.367Z,2.60
2023-03-27T18:56:05.258Z,1.97
2023-03-27T18:58:33.915Z,2.27
2023-03-27T19:01:08.262Z,2.10
2023-03-27T19:03:37.369Z,1.47
2023-03-27T19:06:07.850Z,1.50
2023-03-27T19:08:38.044Z,1.73
2023-03-27T19:11:07.020Z,2.00
2023-03-27T19:13:54.092Z,1.70
2023-03-27T19:16:35.756Z,1.70
2023-03-27T19:19:23.334Z,1.80
2023-03-27T19:21:54.903Z,1.93
2023-03-27T19:24:36.632Z,2.63
2023-03-27T19:27:05.556Z,2.10
2023-03-27T19:29:34.082Z,2.07
2023-03-27T19:32:03.690Z,2.30
2023-03-27T19:34:42.035Z,1.80
2023-03-27T19:37:11.302Z,1.60
2023-03-27T19:39:39.524Z,1.90
2023-03-27T19:42:07.809Z,2.00
2023-03-27T19:44:39.073Z,2.90
2023-03-27T19:47:09.863Z,2.87
2023-03-27T19:49:38.180Z,3.80
2023-03-27T19:52:32.514Z,3.30
2023-03-27T19:55:00.787Z,3.23
2023-03-27T19:57:29.198Z,3.00
2023-03-27T19:59:57.398Z,3.53
2023-03-27T20:02:27.823Z,3.80
2023-03-27T20:04:57.271Z,3.83
2023-03-27T20:07:25.670Z,3.97
2023-03-27T20:09:53.894Z,5.70
2023-03-27T20:12:24.945Z,4.93
2023-03-27T20:15:02.913Z,7.37
2023-03-27T20:17:37.256Z,7.37
2023-03-27T20:20:07.509Z,8.70
2023-03-27T20:22:43.403Z,9.77
2023-03-27T20:25:18.931Z,8.43
2023-03-27T20:27:47.252Z,7.27
2023-03-27T20:30:15.605Z,6.93
2023-03-27T20:32:45.279Z,6.47
2023-03-27T20:35:23.554Z,6.50
2023-03-27T20:37:57.779Z,6.23
2023-03-27T20:40:32.907Z,6.50
2023-03-27T20:43:06.056Z,5.70
2023-03-27T20:45:34.359Z,5.33
2023-03-27T20:48:04.356Z,5.80
2023-03-27T20:50:35.306Z,5.93
2023-03-27T20:53:04.407Z,6.17
2023-03-27T20:55:39.276Z,6.43
2023-03-27T20:58:14.232Z,6.60
2023-03-27T21:00:43.760Z,5.53
2023-03-27T21:03:13.624Z,5.53
2023-03-27T21:05:41.873Z,5.70
2023-03-27T21:08:10.234Z,5.53
2023-03-27T21:10:38.760Z,5.23
2023-03-27T21:13:07.284Z,5.23
2023-03-27T21:15:36.337Z,5.00
2023-03-27T21:18:04.888Z,4.90
2023-03-27T21:20:35.493Z,4.87
2023-03-27T21:23:03.867Z,5.20
2023-03-27T21:25:32.126Z,5.50
2023-03-27T21:28:05.660Z,5.40
2023-03-27T21:30:46.880Z,4.13
2023-03-27T21:33:17.990Z,5.00
2023-03-27T21:35:49.090Z,4.37
2023-03-27T21:38:18.609Z,4.23
2023-03-27T21:40:47.817Z,4.23
2023-03-27T21:43:16.333Z,4.17
2023-03-27T21:45:46.625Z,5.07
2023-03-27T21:48:15.038Z,4.10
2023-03-27T21:50:43.346Z,5.47
2023-03-27T21:53:13.578Z,4.40
2023-03-27T21:55:42.588Z,4.97
2023-03-27T21:58:11.106Z,4.90
2023-03-27T22:00:39.534Z,4.43
2023-03-27T22:03:07.938Z,4.27
2023-03-27T22:05:37.785Z,3.83
2023-03-27T22:08:06.851Z,4.50
2023-03-27T22:10:37.055Z,4.67
2023-03-27T22:13:05.527Z,4.67
2023-03-27T22:15:33.920Z,4.93
2023-03-27T22:18:02.371Z,5.43
2023-03-27T22:20:30.779Z,5.27
2023-03-27T22:22:59.114Z,4.30
2023-03-27T22:25:27.403Z,4.23
2023-03-27T22:27:56.964Z,4.63
2023-03-27T22:30:25.257Z,4.80
2023-03-27T22:32:53.563Z,4.57
2023-03-27T22:35:21.890Z,4.40
2023-03-27T22:37:50.217Z,4.93
2023-03-27T22:40:18.475Z,4.63
2023-03-27T22:42:46.752Z,4.70
2023-03-27T22:45:16.459Z,4.13
2023-03-27T22:47:44.790Z,5.27
2023-03-27T22:50:13.048Z,4.67
2023-03-27T22:52:41.339Z,4.37
2023-03-27T22:55:10.848Z,4.77
2023-03-27T22:57:39.168Z,5.13
2023-03-27T23:00:09.125Z,4.77
2023-03-27T23:02:38.957Z,5.00
2023-03-27T23:05:07.992Z,4.93
2023-03-27T23:07:36.526Z,4.37
2023-03-27T23:10:05.017Z,4.50
2023-03-27T23:12:33.294Z,4.57
2023-03-27T23:15:01.566Z,4.73
2023-03-27T23:17:29.815Z,4.63
2023-03-27T23:19:59.515Z,5.00
2023-03-27T23:22:27.792Z,4.60
2023-03-27T23:24:56.044Z,4.60
2023-03-27T23:27:24.274Z,5.20
2023-03-27T23:29:52.518Z,4.70
2023-03-27T23:32:20.841Z,4.77
2023-03-27T23:34:49.077Z,4.30
2023-03-27T23:37:18.734Z,5.33
2023-03-27T23:39:47.198Z,4.57
2023-03-27T23:42:15.790Z,4.50
2023-03-27T23:44:44.107Z,5.07
2023-03-27T23:47:12.487Z,4.73
2023-03-27T23:49:41.101Z,5.17
2023-03-27T23:52:09.676Z,5.53
2023-03-27T23:54:39.268Z,5.63
2023-03-27T23:57:07.568Z,6.27
2023-03-27T23:59:38.112Z,5.80
